Fure West — OZ2100 — position and weather

sailwx.info

Track history (hours):
 
Tides and Currents Weather Stations Pressure Air Temp Water Temp Dewpoint Dewpoint Depression Visibility Wind Speed Wind Dir Waves Ship Positions

Fure West

Last reported at 2015-Aug-27 20:33 UTC. Time now 2015-Aug-27 21:32 UTC.
Position N 54°51' E 005°54'.

Length 144 m; draft 6.7 m.

MMSI: 231775000.

Date/timePositionNaut miles runAvg speedWind from/ knotsBaromVisibWave heightAir tempDewpointWater temp
2015-Aug-27 20:33N 54°51' E 005°54'3113.2
2015-Aug-27 18:13N 54°25' E 005°27'913.4
2015-Aug-27 17:33N 54°17' E 005°19'1111.1
2015-Aug-27 16:33N 54°07' E 005°10'1111.2
2015-Aug-27 15:33N 53°57' E 005°03'1111.5
2015-Aug-27 14:33N 53°46' E 004°56'1211.7
2015-Aug-27 13:33N 53°35' E 004°49'1211.9
2015-Aug-27 12:33N 53°24' E 004°41'1511.2
2015-Aug-27 11:15N 53°11' E 004°32'1115.4
2015-Aug-27 10:32N 53°01' E 004°22'1111.7
2015-Aug-27 09:34N 52°51' E 004°15'1010.3
2015-Aug-27 08:33N 52°41' E 004°11'1212.1
2015-Aug-27 07:34N 52°31' E 004°22'9 8.5
2015-Aug-27 06:34N 52°28' E 004°36'2 1.6
2015-Aug-27 05:33N 52°28' E 004°38'5 5.0
2015-Aug-27 04:32N 52°25' E 004°45'0 0.0
2015-Aug-27 03:32N 52°25' E 004°45'0 0.0
2015-Aug-27 02:32N 52°25' E 004°45'0 0.0
2015-Aug-27 01:32N 52°25' E 004°45'0 0.0
2015-Aug-27 00:32N 52°25' E 004°45'0 0.0
2015-Aug-26 23:32N 52°25' E 004°45'0 0.0
2015-Aug-26 22:32N 52°25' E 004°45'0 0.0
2015-Aug-26 21:32N 52°25' E 004°45'0 0.0
2015-Aug-26 20:32N 52°25' E 004°45'0 0.0
2015-Aug-26 19:32N 52°25' E 004°45'0 0.0
2015-Aug-26 18:32N 52°25' E 004°45'0 0.0
2015-Aug-26 17:32N 52°25' E 004°45'0 0.0
2015-Aug-26 16:32N 52°25' E 004°45'0 0.0
2015-Aug-26 15:32N 52°25' E 004°45'0 0.0
2015-Aug-26 14:32N 52°25' E 004°45'0 0.0
2015-Aug-26 13:32N 52°25' E 004°45'0 0.0
2015-Aug-26 12:32N 52°25' E 004°45'0 0.0
2015-Aug-26 11:32N 52°25' E 004°45'0 0.0
2015-Aug-26 10:32N 52°25' E 004°45'3 3.0
2015-Aug-26 09:34N 52°27' E 004°41'3 3.2
2015-Aug-26 08:33N 52°28' E 004°37'3 2.5
2015-Aug-26 07:34N 52°28' E 004°32'9 9.1
2015-Aug-26 06:33N 52°28' E 004°17'5 5.4
2015-Aug-26 05:33N 52°27' E 004°09'0 0.0
2015-Aug-26 04:33N 52°27' E 004°09'0 0.0
2015-Aug-26 03:33N 52°27' E 004°09'0 0.0
2015-Aug-26 02:33N 52°27' E 004°09'0 0.0
2015-Aug-26 01:33N 52°27' E 004°09'0 0.0
2015-Aug-26 00:33N 52°27' E 004°09'0 0.0
2015-Aug-25 23:33N 52°27' E 004°09'0 0.0
2015-Aug-25 22:33N 52°27' E 004°09'0 0.0
2015-Aug-25 21:33N 52°27' E 004°09'0 0.0
2015-Aug-25 20:33N 52°27' E 004°09'0 0.0
2015-Aug-25 19:30N 52°27' E 004°09'0 0.0
2015-Aug-25 18:33N 52°27' E 004°09'0 0.0
2015-Aug-25 17:30N 52°27' E 004°09'0 0.0
2015-Aug-25 16:33N 52°27' E 004°09'0 0.0
2015-Aug-25 15:27N 52°27' E 004°09'0 0.0
2015-Aug-25 14:27N 52°27' E 004°09'0 0.0
2015-Aug-25 13:30N 52°27' E 004°09'0 0.0
2015-Aug-25 12:33N 52°27' E 004°09'0 0.0
2015-Aug-25 11:33N 52°27' E 004°09'0 0.0
2015-Aug-25 10:33N 52°27' E 004°09'0 0.0
2015-Aug-25 09:33N 52°27' E 004°09'0 0.0
2015-Aug-25 08:33N 52°27' E 004°09'0 0.0
2015-Aug-25 07:30N 52°27' E 004°09'0 0.0
2015-Aug-25 06:27N 52°27' E 004°09'0 0.0
2015-Aug-25 05:33N 52°27' E 004°09'0 0.0
2015-Aug-25 04:33N 52°27' E 004°09'0 0.0
2015-Aug-25 03:33N 52°27' E 004°09'0 0.0
2015-Aug-25 02:33N 52°27' E 004°09'0 0.0
2015-Aug-25 01:33N 52°27' E 004°09'0 0.0
2015-Aug-25 00:27N 52°27' E 004°09'0 0.1
2015-Aug-24 23:24N 52°27' E 004°09'0 0.0
2015-Aug-24 22:33N 52°27' E 004°09'0 0.0
2015-Aug-24 21:33N 52°27' E 004°09'0 0.0
2015-Aug-24 20:21N 52°27' E 004°09'0 0.0
2015-Aug-24 19:33N 52°27' E 004°08'0 0.0
2015-Aug-24 18:21N 52°27' E 004°08'0 0.0
2015-Aug-24 17:33N 52°27' E 004°08'0 0.1
2015-Aug-24 16:30N 52°27' E 004°08'0 0.1
2015-Aug-24 15:30N 52°27' E 004°08'0 0.0
2015-Aug-24 14:33N 52°27' E 004°08'0 0.0
2015-Aug-24 13:33N 52°27' E 004°08'0 0.1
2015-Aug-24 12:33N 52°27' E 004°08'0 0.1
2015-Aug-24 11:30N 52°27' E 004°09'0 0.0
2015-Aug-24 10:12N 52°27' E 004°09'0 0.0
2015-Aug-24 09:33N 52°27' E 004°09'0 0.0
2015-Aug-24 08:33N 52°27' E 004°09'0 0.0
2015-Aug-24 07:33N 52°27' E 004°09'0 0.0
2015-Aug-24 06:33N 52°27' E 004°09'0 0.1
2015-Aug-24 05:33N 52°27' E 004°09'0 0.1
2015-Aug-24 04:27N 52°27' E 004°08'0 0.0
2015-Aug-24 03:33N 52°27' E 004°08'0 0.1
2015-Aug-24 02:33N 52°27' E 004°09'0 0.1
2015-Aug-24 01:33N 52°27' E 004°09'0 0.0
2015-Aug-24 00:33N 52°27' E 004°09'0 0.0
2015-Aug-23 23:33N 52°27' E 004°09'0 0.0
2015-Aug-23 22:27N 52°27' E 004°09'0 0.0
2015-Aug-23 21:33N 52°27' E 004°09'0 0.0
2015-Aug-23 20:33N 52°27' E 004°09'0 0.0
2015-Aug-23 19:33N 52°27' E 004°09'0 0.0
2015-Aug-23 18:33N 52°27' E 004°08'0 0.1
2015-Aug-23 17:33N 52°27' E 004°08'0 0.1
2015-Aug-23 16:27N 52°27' E 004°08'0 0.0
2015-Aug-23 15:27N 52°27' E 004°08'0 0.0
2015-Aug-23 14:33N 52°27' E 004°08'5 5.2
2015-Aug-23 13:33N 52°27' E 003°60'9 9.2
2015-Aug-23 12:33N 52°25' E 003°45'9 9.4
2015-Aug-23 11:33N 52°20' E 003°32'4010.1
2015-Aug-23 07:33N 51°52' E 002°44'1111.2
2015-Aug-23 06:33N 51°43' E 002°33'1212.0
2015-Aug-23 05:33N 51°34' E 002°21'1313.1
2015-Aug-23 04:33N 51°23' E 002°08'1312.6
2015-Aug-23 03:33N 51°12' E 001°59'1313.0
2015-Aug-23 02:33N 51°05' E 001°42'1414.0
2015-Aug-23 01:33N 50°54' E 001°27'1413.6
2015-Aug-23 00:33N 50°41' E 001°20'1413.8
2015-Aug-22 23:34N 50°33' E 001°03'1413.7
2015-Aug-22 22:33N 50°27' E 000°43'11213.4
2015-Aug-22 14:14N 49°58' W 002°06'1116.1
2015-Aug-22 13:33N 49°56' W 002°22'175 8.6
2015-Aug-21 17:16N 51°48' W 005°56'912.8
2015-Aug-21 16:33N 51°57' W 005°51'1313.0
2015-Aug-21 15:33N 52°09' W 005°44'1212.2
2015-Aug-21 14:33N 52°20' W 005°36'1111.4
2015-Aug-21 13:33N 52°31' W 005°29'8310.4
2015-Aug-21 05:33N 53°34' W 003°60'1313.2
2015-Aug-21 04:33N 53°34' W 003°38'1312.9
2015-Aug-21 03:33N 53°32' W 003°16'1211.9
2015-Aug-21 02:33N 53°25' W 003°00'6 5.6
2015-Aug-21 01:33N 53°19' W 002°57'2 1.8
2015-Aug-21 00:33N 53°18' W 002°55'2 1.9
2015-Aug-20 23:33N 53°17' W 002°52'0 0.0
2015-Aug-20 22:31N 53°17' W 002°52'0 0.0
2015-Aug-20 21:31N 53°17' W 002°52'0 0.0
2015-Aug-20 20:28N 53°17' W 002°52'0 0.0
2015-Aug-20 19:28N 53°17' W 002°52'0 0.0
2015-Aug-20 18:28N 53°17' W 002°52'0 0.0
2015-Aug-20 17:28N 53°17' W 002°52'0 0.0
2015-Aug-20 16:31N 53°17' W 002°52'0 0.0
2015-Aug-20 15:31N 53°17' W 002°52'0 0.0
2015-Aug-20 14:28N 53°17' W 002°52'0 0.0
2015-Aug-20 13:31N 53°17' W 002°52'0 0.0
2015-Aug-20 12:25N 53°17' W 002°52'0 0.0
2015-Aug-20 11:31N 53°17' W 002°52'0 0.0
2015-Aug-20 10:31N 53°17' W 002°52'0 0.0
2015-Aug-20 09:28N 53°17' W 002°52'0 0.0
2015-Aug-20 08:31N 53°17' W 002°52'0 0.0
2015-Aug-20 07:28N 53°17' W 002°52'0 0.0
2015-Aug-20 06:31N 53°17' W 002°52'0 0.0
2015-Aug-20 05:31N 53°17' W 002°52'0 0.0
2015-Aug-20 04:31N 53°17' W 002°52'0 0.0
2015-Aug-20 03:31N 53°17' W 002°52'0 0.0
2015-Aug-20 02:31N 53°17' W 002°52'0 0.0
2015-Aug-20 01:31N 53°17' W 002°52'0 0.0
2015-Aug-20 00:31N 53°17' W 002°52'0 0.0
2015-Aug-19 23:31N 53°17' W 002°52'0 0.0
2015-Aug-19 22:31N 53°17' W 002°52'0 0.0
2015-Aug-19 21:31N 53°17' W 002°52'0 0.0
2015-Aug-19 20:28N 53°17' W 002°52'0 0.0
2015-Aug-19 19:31N 53°17' W 002°52'0 0.0
2015-Aug-19 18:28N 53°17' W 002°52'0 0.0
2015-Aug-19 17:31N 53°17' W 002°52'0 0.0
2015-Aug-19 16:31N 53°17' W 002°52'0 0.1
2015-Aug-19 15:34N 53°17' W 002°52'4 3.6
2015-Aug-19 14:34N 53°19' W 002°57'2 2.1
2015-Aug-19 13:34N 53°21' W 002°58'1111.5
2015-Aug-19 12:33N 53°31' W 003°07'10 9.7
2015-Aug-19 11:33N 53°31' W 003°24'3 2.5
2015-Aug-19 10:31N 53°29' W 003°27'0 0.0
2015-Aug-19 09:31N 53°29' W 003°27'0 0.1
2015-Aug-19 08:31N 53°29' W 003°28'0 0.0
2015-Aug-19 07:31N 53°29' W 003°28'0 0.0
2015-Aug-19 06:31N 53°29' W 003°28'0 0.0
2015-Aug-19 05:31N 53°29' W 003°28'0 0.0
2015-Aug-19 04:31N 53°29' W 003°28'0 0.0
2015-Aug-19 03:31N 53°29' W 003°28'0 0.1
2015-Aug-19 02:31N 53°29' W 003°28'0 0.0
2015-Aug-19 01:31N 53°29' W 003°27'0 0.0
2015-Aug-19 00:31N 53°29' W 003°27'0 0.0
2015-Aug-18 23:31N 53°29' W 003°27'0 0.0
2015-Aug-18 22:31N 53°29' W 003°27'0 0.0
2015-Aug-18 21:31N 53°29' W 003°27'0 0.0
2015-Aug-18 20:31N 53°29' W 003°27'0 0.0
2015-Aug-18 19:31N 53°29' W 003°27'0 0.2
2015-Aug-18 18:33N 53°29' W 003°28'1110.8
2015-Aug-18 17:33N 53°31' W 003°46'1512.8
2015-Aug-18 16:21N 53°30' W 004°12'18 8.8
2015-Aug-18 14:17N 53°28' W 004°42'5712.2
2015-Aug-18 09:34N 52°39' W 005°31'1514.5
2015-Aug-18 08:33N 52°26' W 005°44'1313.0
2015-Aug-18 07:34N 52°15' W 005°54'1211.6
2015-Aug-18 06:33N 52°05' W 006°04'1111.2
2015-Aug-18 05:34N 52°00' W 006°20'1111.2
2015-Aug-18 04:34N 51°56' W 006°37'410.9
2015-Aug-18 04:09N 51°54' W 006°43'011.5
2015-Aug-18 04:09N 51°54' W 006°44'611.1
2015-Aug-18 03:34N 51°52' W 006°53'1211.9
2015-Aug-18 02:34N 51°47' W 007°11'1212.2
2015-Aug-18 01:34N 51°43' W 007°29'1212.1
2015-Aug-18 00:34N 51°39' W 007°47'1212.0
2015-Aug-17 23:34N 51°34' W 008°05'1211.7
2015-Aug-17 22:34N 51°30' W 008°23'1211.5
2015-Aug-17 21:34N 51°26' W 008°41'1211.8
2015-Aug-17 20:34N 51°23' W 008°59'  
Track history (hours):
 
Tides and Currents Weather Stations Pressure Air Temp Water Temp Dewpoint Dewpoint Depression Visibility Wind Speed Wind Dir Waves Ship Positions

Fure West

Last reported at 2015-Aug-27 20:33 UTC. Time now 2015-Aug-27 21:32 UTC.
Position N 54°51' E 005°54'.

Length 144 m; draft 6.7 m.

MMSI: 231775000.

Date/timePositionNaut miles runAvg speedWind from/ knotsBaromVisibWave heightAir tempDewpointWater temp
2015-Aug-27 20:33N 54°51' E 005°54'3113.2
2015-Aug-27 18:13N 54°25' E 005°27'913.4
2015-Aug-27 17:33N 54°17' E 005°19'1111.1
2015-Aug-27 16:33N 54°07' E 005°10'1111.2
2015-Aug-27 15:33N 53°57' E 005°03'1111.5
2015-Aug-27 14:33N 53°46' E 004°56'1211.7
2015-Aug-27 13:33N 53°35' E 004°49'1211.9
2015-Aug-27 12:33N 53°24' E 004°41'1511.2
2015-Aug-27 11:15N 53°11' E 004°32'1115.4
2015-Aug-27 10:32N 53°01' E 004°22'1111.7
2015-Aug-27 09:34N 52°51' E 004°15'1010.3
2015-Aug-27 08:33N 52°41' E 004°11'1212.1
2015-Aug-27 07:34N 52°31' E 004°22'9 8.5
2015-Aug-27 06:34N 52°28' E 004°36'2 1.6
2015-Aug-27 05:33N 52°28' E 004°38'5 5.0
2015-Aug-27 04:32N 52°25' E 004°45'0 0.0
2015-Aug-27 03:32N 52°25' E 004°45'0 0.0
2015-Aug-27 02:32N 52°25' E 004°45'0 0.0
2015-Aug-27 01:32N 52°25' E 004°45'0 0.0
2015-Aug-27 00:32N 52°25' E 004°45'0 0.0
2015-Aug-26 23:32N 52°25' E 004°45'0 0.0
2015-Aug-26 22:32N 52°25' E 004°45'0 0.0
2015-Aug-26 21:32N 52°25' E 004°45'0 0.0
2015-Aug-26 20:32N 52°25' E 004°45'0 0.0
2015-Aug-26 19:32N 52°25' E 004°45'0 0.0
2015-Aug-26 18:32N 52°25' E 004°45'0 0.0
2015-Aug-26 17:32N 52°25' E 004°45'0 0.0
2015-Aug-26 16:32N 52°25' E 004°45'0 0.0
2015-Aug-26 15:32N 52°25' E 004°45'0 0.0
2015-Aug-26 14:32N 52°25' E 004°45'0 0.0
2015-Aug-26 13:32N 52°25' E 004°45'0 0.0
2015-Aug-26 12:32N 52°25' E 004°45'0 0.0
2015-Aug-26 11:32N 52°25' E 004°45'0 0.0
2015-Aug-26 10:32N 52°25' E 004°45'3 3.0
2015-Aug-26 09:34N 52°27' E 004°41'3 3.2
2015-Aug-26 08:33N 52°28' E 004°37'3 2.5
2015-Aug-26 07:34N 52°28' E 004°32'9 9.1
2015-Aug-26 06:33N 52°28' E 004°17'5 5.4
2015-Aug-26 05:33N 52°27' E 004°09'0 0.0
2015-Aug-26 04:33N 52°27' E 004°09'0 0.0
2015-Aug-26 03:33N 52°27' E 004°09'0 0.0
2015-Aug-26 02:33N 52°27' E 004°09'0 0.0
2015-Aug-26 01:33N 52°27' E 004°09'0 0.0
2015-Aug-26 00:33N 52°27' E 004°09'0 0.0
2015-Aug-25 23:33N 52°27' E 004°09'0 0.0
2015-Aug-25 22:33N 52°27' E 004°09'0 0.0
2015-Aug-25 21:33N 52°27' E 004°09'0 0.0
2015-Aug-25 20:33N 52°27' E 004°09'0 0.0
2015-Aug-25 19:30N 52°27' E 004°09'0 0.0
2015-Aug-25 18:33N 52°27' E 004°09'0 0.0
2015-Aug-25 17:30N 52°27' E 004°09'0 0.0
2015-Aug-25 16:33N 52°27' E 004°09'0 0.0
2015-Aug-25 15:27N 52°27' E 004°09'0 0.0
2015-Aug-25 14:27N 52°27' E 004°09'0 0.0
2015-Aug-25 13:30N 52°27' E 004°09'0 0.0
2015-Aug-25 12:33N 52°27' E 004°09'0 0.0
2015-Aug-25 11:33N 52°27' E 004°09'0 0.0
2015-Aug-25 10:33N 52°27' E 004°09'0 0.0
2015-Aug-25 09:33N 52°27' E 004°09'0 0.0
2015-Aug-25 08:33N 52°27' E 004°09'0 0.0
2015-Aug-25 07:30N 52°27' E 004°09'0 0.0
2015-Aug-25 06:27N 52°27' E 004°09'0 0.0
2015-Aug-25 05:33N 52°27' E 004°09'0 0.0
2015-Aug-25 04:33N 52°27' E 004°09'0 0.0
2015-Aug-25 03:33N 52°27' E 004°09'0 0.0
2015-Aug-25 02:33N 52°27' E 004°09'0 0.0
2015-Aug-25 01:33N 52°27' E 004°09'0 0.0
2015-Aug-25 00:27N 52°27' E 004°09'0 0.1
2015-Aug-24 23:24N 52°27' E 004°09'0 0.0
2015-Aug-24 22:33N 52°27' E 004°09'0 0.0
2015-Aug-24 21:33N 52°27' E 004°09'0 0.0
2015-Aug-24 20:21N 52°27' E 004°09'0 0.0
2015-Aug-24 19:33N 52°27' E 004°08'0 0.0
2015-Aug-24 18:21N 52°27' E 004°08'0 0.0
2015-Aug-24 17:33N 52°27' E 004°08'0 0.1
2015-Aug-24 16:30N 52°27' E 004°08'0 0.1
2015-Aug-24 15:30N 52°27' E 004°08'0 0.0
2015-Aug-24 14:33N 52°27' E 004°08'0 0.0
2015-Aug-24 13:33N 52°27' E 004°08'0 0.1
2015-Aug-24 12:33N 52°27' E 004°08'0 0.1
2015-Aug-24 11:30N 52°27' E 004°09'0 0.0
2015-Aug-24 10:12N 52°27' E 004°09'0 0.0
2015-Aug-24 09:33N 52°27' E 004°09'0 0.0
2015-Aug-24 08:33N 52°27' E 004°09'0 0.0
2015-Aug-24 07:33N 52°27' E 004°09'0 0.0
2015-Aug-24 06:33N 52°27' E 004°09'0 0.1
2015-Aug-24 05:33N 52°27' E 004°09'0 0.1
2015-Aug-24 04:27N 52°27' E 004°08'0 0.0
2015-Aug-24 03:33N 52°27' E 004°08'0 0.1
2015-Aug-24 02:33N 52°27' E 004°09'0 0.1
2015-Aug-24 01:33N 52°27' E 004°09'0 0.0
2015-Aug-24 00:33N 52°27' E 004°09'0 0.0
2015-Aug-23 23:33N 52°27' E 004°09'0 0.0
2015-Aug-23 22:27N 52°27' E 004°09'0 0.0
2015-Aug-23 21:33N 52°27' E 004°09'0 0.0
2015-Aug-23 20:33N 52°27' E 004°09'0 0.0
2015-Aug-23 19:33N 52°27' E 004°09'0 0.0
2015-Aug-23 18:33N 52°27' E 004°08'0 0.1
2015-Aug-23 17:33N 52°27' E 004°08'0 0.1
2015-Aug-23 16:27N 52°27' E 004°08'0 0.0
2015-Aug-23 15:27N 52°27' E 004°08'0 0.0
2015-Aug-23 14:33N 52°27' E 004°08'5 5.2
2015-Aug-23 13:33N 52°27' E 003°60'9 9.2
2015-Aug-23 12:33N 52°25' E 003°45'9 9.4
2015-Aug-23 11:33N 52°20' E 003°32'4010.1
2015-Aug-23 07:33N 51°52' E 002°44'1111.2
2015-Aug-23 06:33N 51°43' E 002°33'1212.0
2015-Aug-23 05:33N 51°34' E 002°21'1313.1
2015-Aug-23 04:33N 51°23' E 002°08'1312.6
2015-Aug-23 03:33N 51°12' E 001°59'1313.0
2015-Aug-23 02:33N 51°05' E 001°42'1414.0
2015-Aug-23 01:33N 50°54' E 001°27'1413.6
2015-Aug-23 00:33N 50°41' E 001°20'1413.8
2015-Aug-22 23:34N 50°33' E 001°03'1413.7
2015-Aug-22 22:33N 50°27' E 000°43'11213.4
2015-Aug-22 14:14N 49°58' W 002°06'1116.1
2015-Aug-22 13:33N 49°56' W 002°22'175 8.6
2015-Aug-21 17:16N 51°48' W 005°56'912.8
2015-Aug-21 16:33N 51°57' W 005°51'1313.0
2015-Aug-21 15:33N 52°09' W 005°44'1212.2
2015-Aug-21 14:33N 52°20' W 005°36'1111.4
2015-Aug-21 13:33N 52°31' W 005°29'8310.4
2015-Aug-21 05:33N 53°34' W 003°60'1313.2
2015-Aug-21 04:33N 53°34' W 003°38'1312.9
2015-Aug-21 03:33N 53°32' W 003°16'1211.9
2015-Aug-21 02:33N 53°25' W 003°00'6 5.6
2015-Aug-21 01:33N 53°19' W 002°57'2 1.8
2015-Aug-21 00:33N 53°18' W 002°55'2 1.9
2015-Aug-20 23:33N 53°17' W 002°52'0 0.0
2015-Aug-20 22:31N 53°17' W 002°52'0 0.0
2015-Aug-20 21:31N 53°17' W 002°52'0 0.0
2015-Aug-20 20:28N 53°17' W 002°52'0 0.0
2015-Aug-20 19:28N 53°17' W 002°52'0 0.0
2015-Aug-20 18:28N 53°17' W 002°52'0 0.0
2015-Aug-20 17:28N 53°17' W 002°52'0 0.0
2015-Aug-20 16:31N 53°17' W 002°52'0 0.0
2015-Aug-20 15:31N 53°17' W 002°52'0 0.0
2015-Aug-20 14:28N 53°17' W 002°52'0 0.0
2015-Aug-20 13:31N 53°17' W 002°52'0 0.0
2015-Aug-20 12:25N 53°17' W 002°52'0 0.0
2015-Aug-20 11:31N 53°17' W 002°52'0 0.0
2015-Aug-20 10:31N 53°17' W 002°52'0 0.0
2015-Aug-20 09:28N 53°17' W 002°52'0 0.0
2015-Aug-20 08:31N 53°17' W 002°52'0 0.0
2015-Aug-20 07:28N 53°17' W 002°52'0 0.0
2015-Aug-20 06:31N 53°17' W 002°52'0 0.0
2015-Aug-20 05:31N 53°17' W 002°52'0 0.0
2015-Aug-20 04:31N 53°17' W 002°52'0 0.0
2015-Aug-20 03:31N 53°17' W 002°52'0 0.0
2015-Aug-20 02:31N 53°17' W 002°52'0 0.0
2015-Aug-20 01:31N 53°17' W 002°52'0 0.0
2015-Aug-20 00:31N 53°17' W 002°52'0 0.0
2015-Aug-19 23:31N 53°17' W 002°52'0 0.0
2015-Aug-19 22:31N 53°17' W 002°52'0 0.0
2015-Aug-19 21:31N 53°17' W 002°52'0 0.0
2015-Aug-19 20:28N 53°17' W 002°52'0 0.0
2015-Aug-19 19:31N 53°17' W 002°52'0 0.0
2015-Aug-19 18:28N 53°17' W 002°52'0 0.0
2015-Aug-19 17:31N 53°17' W 002°52'0 0.0
2015-Aug-19 16:31N 53°17' W 002°52'0 0.1
2015-Aug-19 15:34N 53°17' W 002°52'4 3.6
2015-Aug-19 14:34N 53°19' W 002°57'2 2.1
2015-Aug-19 13:34N 53°21' W 002°58'1111.5
2015-Aug-19 12:33N 53°31' W 003°07'10 9.7
2015-Aug-19 11:33N 53°31' W 003°24'3 2.5
2015-Aug-19 10:31N 53°29' W 003°27'0 0.0
2015-Aug-19 09:31N 53°29' W 003°27'0 0.1
2015-Aug-19 08:31N 53°29' W 003°28'0 0.0
2015-Aug-19 07:31N 53°29' W 003°28'0 0.0
2015-Aug-19 06:31N 53°29' W 003°28'0 0.0
2015-Aug-19 05:31N 53°29' W 003°28'0 0.0
2015-Aug-19 04:31N 53°29' W 003°28'0 0.0
2015-Aug-19 03:31N 53°29' W 003°28'0 0.1
2015-Aug-19 02:31N 53°29' W 003°28'0 0.0
2015-Aug-19 01:31N 53°29' W 003°27'0 0.0
2015-Aug-19 00:31N 53°29' W 003°27'0 0.0
2015-Aug-18 23:31N 53°29' W 003°27'0 0.0
2015-Aug-18 22:31N 53°29' W 003°27'0 0.0
2015-Aug-18 21:31N 53°29' W 003°27'0 0.0
2015-Aug-18 20:31N 53°29' W 003°27'0 0.0
2015-Aug-18 19:31N 53°29' W 003°27'0 0.2
2015-Aug-18 18:33N 53°29' W 003°28'1110.8
2015-Aug-18 17:33N 53°31' W 003°46'1512.8
2015-Aug-18 16:21N 53°30' W 004°12'18 8.8
2015-Aug-18 14:17N 53°28' W 004°42'5712.2
2015-Aug-18 09:34N 52°39' W 005°31'1514.5
2015-Aug-18 08:33N 52°26' W 005°44'1313.0
2015-Aug-18 07:34N 52°15' W 005°54'1211.6
2015-Aug-18 06:33N 52°05' W 006°04'1111.2
2015-Aug-18 05:34N 52°00' W 006°20'1111.2
2015-Aug-18 04:34N 51°56' W 006°37'410.9
2015-Aug-18 04:09N 51°54' W 006°43'011.5
2015-Aug-18 04:09N 51°54' W 006°44'611.1
2015-Aug-18 03:34N 51°52' W 006°53'1211.9
2015-Aug-18 02:34N 51°47' W 007°11'1212.2
2015-Aug-18 01:34N 51°43' W 007°29'1212.1
2015-Aug-18 00:34N 51°39' W 007°47'1212.0
2015-Aug-17 23:34N 51°34' W 008°05'1211.7
2015-Aug-17 22:34N 51°30' W 008°23'1211.5
2015-Aug-17 21:34N 51°26' W 008°41'1211.8
2015-Aug-17 20:34N 51°23' W 008°59'  

Dump ship's entire track history